createdAt,value
2023-03-20T00:01:17.671Z,3.30
2023-03-20T00:03:45.437Z,3.88
2023-03-20T00:06:34.129Z,3.42
2023-03-20T00:09:07.325Z,3.50
2023-03-20T00:11:36.878Z,3.40
2023-03-20T00:14:08.928Z,2.92
2023-03-20T00:16:44.062Z,3.55
2023-03-20T00:19:29.955Z,3.17
2023-03-20T00:21:57.588Z,2.95
2023-03-20T00:24:25.750Z,2.58
2023-03-20T00:26:59.355Z,3.15
2023-03-20T00:29:31.614Z,2.40
2023-03-20T00:31:59.836Z,2.20
2023-03-20T00:34:30.228Z,2.50
2023-03-20T00:37:00.654Z,2.30
2023-03-20T00:39:28.548Z,2.08
2023-03-20T00:42:00.720Z,2.40
2023-03-20T00:44:42.470Z,2.60
2023-03-20T00:47:24.757Z,2.47
2023-03-20T00:49:53.490Z,2.40
2023-03-20T00:52:21.690Z,2.30
2023-03-20T00:54:49.113Z,2.10
2023-03-20T00:57:39.713Z,2.75
2023-03-20T01:00:46.385Z,1.98
2023-03-20T01:03:24.819Z,1.95
2023-03-20T01:05:54.828Z,1.90
2023-03-20T01:08:27.394Z,2.10
2023-03-20T01:10:59.977Z,2.10
2023-03-20T01:13:35.626Z,2.20
2023-03-20T01:16:29.732Z,2.05
2023-03-20T01:19:02.898Z,2.35
2023-03-20T01:24:00.270Z,2.17
2023-03-20T01:26:44.316Z,2.45
2023-03-20T01:29:30.195Z,2.35
2023-03-20T01:32:00.766Z,2.30
2023-03-20T01:34:30.962Z,2.85
2023-03-20T01:36:59.234Z,3.20
2023-03-20T01:39:32.212Z,3.35
2023-03-20T01:42:11.453Z,3.45
2023-03-20T01:44:45.333Z,3.60
2023-03-20T01:47:26.750Z,3.88
2023-03-20T01:50:22.842Z,3.60
2023-03-20T01:53:06.596Z,3.95
2023-03-20T01:55:53.845Z,5.50
2023-03-20T01:58:56.210Z,4.45
2023-03-20T02:01:49.068Z,4.55
2023-03-20T02:04:39.743Z,4.55
2023-03-20T02:07:15.936Z,4.65
2023-03-20T02:09:50.151Z,4.97
2023-03-20T02:12:17.782Z,5.53
2023-03-20T02:14:48.611Z,5.55
2023-03-20T02:17:24.286Z,5.85
2023-03-20T02:20:05.759Z,6.30
2023-03-20T02:22:49.379Z,5.70
2023-03-20T02:25:30.190Z,6.18
2023-03-20T02:28:30.625Z,5.45
2023-03-20T02:31:28.803Z,5.40
2023-03-20T02:34:15.302Z,5.53
2023-03-20T02:37:10.209Z,6.05
2023-03-20T02:40:05.666Z,5.60
2023-03-20T02:42:57.561Z,6.20
2023-03-20T02:45:50.649Z,4.30
2023-03-20T02:48:24.284Z,4.20
2023-03-20T02:51:09.120Z,3.97
2023-03-20T02:53:57.682Z,3.67
2023-03-20T02:56:40.968Z,3.40
2023-03-20T03:01:57.132Z,2.65
2023-03-20T03:04:30.685Z,2.15
2023-03-20T03:07:05.942Z,2.20
2023-03-20T03:09:46.709Z,2.03
2023-03-20T03:12:28.076Z,1.80
2023-03-20T03:15:10.076Z,1.73
2023-03-20T03:17:54.212Z,1.35
2023-03-20T03:20:28.633Z,1.45
2023-03-20T03:23:07.182Z,1.00
2023-03-20T03:25:43.635Z,1.40
2023-03-20T03:28:35.055Z,1.40
2023-03-20T03:31:02.432Z,1.40
2023-03-20T03:33:39.117Z,1.15
2023-03-20T03:36:26.812Z,1.80
2023-03-20T03:39:13.218Z,1.40
2023-03-20T03:41:56.130Z,1.40
2023-03-20T03:44:31.567Z,1.65
2023-03-20T03:47:06.194Z,1.40
2023-03-20T03:49:41.333Z,1.40
2023-03-20T03:52:29.838Z,1.45
2023-03-20T03:55:03.837Z,1.55
2023-03-20T03:57:52.258Z,1.42
2023-03-20T04:00:24.200Z,1.33
2023-03-20T04:02:54.116Z,1.40
2023-03-20T04:05:25.164Z,1.30
2023-03-20T04:07:58.827Z,1.05
2023-03-20T04:10:35.133Z,1.42
2023-03-20T04:13:11.927Z,1.40
2023-03-20T04:15:39.461Z,1.15
2023-03-20T04:18:20.167Z,1.50
2023-03-20T04:21:02.659Z,1.17
2023-03-20T04:23:36.359Z,1.10
2023-03-20T04:26:14.427Z,1.40
2023-03-20T04:28:50.932Z,1.33
2023-03-20T04:31:21.767Z,1.40
2023-03-20T04:33:52.769Z,1.35
2023-03-20T04:36:22.570Z,1.33
2023-03-20T04:38:50.252Z,1.50
2023-03-20T04:41:24.375Z,1.30
2023-03-20T04:43:58.538Z,1.30
2023-03-20T04:46:42.444Z,1.10
2023-03-20T04:49:20.871Z,1.40
2023-03-20T04:51:48.516Z,3.08
2023-03-20T04:54:19.584Z,1.42
2023-03-20T04:56:51.789Z,1.20
2023-03-20T04:59:22.679Z,1.03
2023-03-20T05:01:56.159Z,1.20
2023-03-20T05:04:31.450Z,1.10
2023-03-20T05:07:02.189Z,0.80
2023-03-20T05:09:38.842Z,0.90
2023-03-20T05:12:21.342Z,0.90
2023-03-20T05:14:53.199Z,1.10
2023-03-20T05:17:29.588Z,0.90
2023-03-20T05:19:57.933Z,0.90
2023-03-20T05:22:25.548Z,1.13
2023-03-20T05:24:58.332Z,1.02
2023-03-20T05:27:30.376Z,0.80
2023-03-20T05:29:57.809Z,1.15
2023-03-20T05:32:25.368Z,0.93
2023-03-20T05:35:00.497Z,0.90
2023-03-20T05:37:33.523Z,1.15
2023-03-20T05:40:09.680Z,0.95
2023-03-20T05:42:39.694Z,1.25
2023-03-20T05:45:30.490Z,1.00
2023-03-20T05:48:07.090Z,1.20
2023-03-20T05:50:37.806Z,1.17
2023-03-20T05:53:18.714Z,1.10
2023-03-20T05:55:55.468Z,1.13
2023-03-20T05:58:31.216Z,1.20
2023-03-20T06:01:02.053Z,1.20
2023-03-20T06:03:38.257Z,1.20
2023-03-20T06:06:08.621Z,1.55
2023-03-20T06:08:39.079Z,1.20
2023-03-20T06:11:12.412Z,1.30
2023-03-20T06:16:39.403Z,1.48
2023-03-20T06:19:08.045Z,3.00
2023-03-20T06:21:48.176Z,1.48
2023-03-20T06:24:16.512Z,1.20
2023-03-20T06:26:57.142Z,1.58
2023-03-20T06:29:33.452Z,1.90
2023-03-20T06:32:01.037Z,1.58
2023-03-20T06:34:39.041Z,1.40
2023-03-20T06:37:26.163Z,1.27
2023-03-20T06:40:08.262Z,1.30
2023-03-20T06:42:50.113Z,1.30
2023-03-20T06:45:20.821Z,1.70
2023-03-20T06:47:53.645Z,1.50
2023-03-20T06:50:21.293Z,1.50
2023-03-20T06:53:02.114Z,1.40
2023-03-20T06:55:36.886Z,1.42
2023-03-20T06:58:13.894Z,1.40
2023-03-20T07:00:44.356Z,1.90
2023-03-20T07:03:15.456Z,1.60
2023-03-20T07:05:52.243Z,1.30
2023-03-20T07:08:23.366Z,1.20
2023-03-20T07:10:55.340Z,1.45
2023-03-20T07:13:34.937Z,1.77
2023-03-20T07:16:16.366Z,1.55
2023-03-20T07:18:44.245Z,1.27
2023-03-20T07:21:22.186Z,1.30
2023-03-20T07:23:55.282Z,1.45
2023-03-20T07:26:24.532Z,1.67
2023-03-20T07:28:55.852Z,1.40
2023-03-20T07:31:32.453Z,1.20
2023-03-20T07:34:02.149Z,2.40
2023-03-20T07:36:32.190Z,1.60
2023-03-20T07:38:59.699Z,1.42
2023-03-20T07:41:27.137Z,1.40
2023-03-20T07:43:57.927Z,1.33
2023-03-20T07:46:27.148Z,1.10
2023-03-20T07:49:11.730Z,1.38
2023-03-20T07:51:44.551Z,1.25
2023-03-20T07:54:12.140Z,1.10
2023-03-20T07:56:40.042Z,1.38
2023-03-20T07:59:11.081Z,1.50
2023-03-20T08:01:41.983Z,1.15
2023-03-20T08:04:10.425Z,1.15
2023-03-20T08:06:40.011Z,1.25
2023-03-20T08:09:10.739Z,0.90
2023-03-20T08:11:38.062Z,1.00
2023-03-20T08:14:06.164Z,0.95
2023-03-20T08:16:33.508Z,0.88
2023-03-20T08:19:08.273Z,0.93
2023-03-20T08:21:41.555Z,0.98
2023-03-20T08:24:14.646Z,0.85
2023-03-20T08:26:44.494Z,0.95
2023-03-20T08:29:17.713Z,0.80
2023-03-20T08:31:45.179Z,0.90
2023-03-20T08:34:16.007Z,0.88
2023-03-20T08:36:45.690Z,0.98
2023-03-20T08:39:18.501Z,1.30
2023-03-20T08:41:48.735Z,0.80
2023-03-20T08:44:20.241Z,0.90
2023-03-20T08:46:56.100Z,1.00
2023-03-20T08:49:23.684Z,1.08
2023-03-20T08:52:04.911Z,0.70
2023-03-20T08:54:34.729Z,1.10
2023-03-20T08:57:03.963Z,0.90
2023-03-20T08:59:31.892Z,0.80
2023-03-20T09:02:07.326Z,0.98
2023-03-20T09:04:37.554Z,0.90
2023-03-20T09:07:08.635Z,1.20
2023-03-20T09:09:36.509Z,1.60
2023-03-20T09:12:04.453Z,1.25
2023-03-20T09:14:35.117Z,1.35
2023-03-20T09:17:09.550Z,1.00
2023-03-20T09:19:40.619Z,1.00
2023-03-20T09:22:12.225Z,1.10
2023-03-20T09:24:39.479Z,0.95
2023-03-20T09:27:10.319Z,1.17
2023-03-20T09:29:38.000Z,1.35
2023-03-20T09:32:12.957Z,1.23
2023-03-20T09:34:41.146Z,1.13
2023-03-20T09:37:08.544Z,1.08
2023-03-20T09:39:36.481Z,0.90
2023-03-20T09:42:14.834Z,1.17
2023-03-20T09:44:56.519Z,1.00
2023-03-20T09:47:34.581Z,0.90
2023-03-20T09:50:22.928Z,2.25
2023-03-20T09:53:13.249Z,1.30
2023-03-20T09:55:42.301Z,0.98
2023-03-20T09:58:30.873Z,1.00
2023-03-20T10:01:00.505Z,1.05
2023-03-20T10:03:43.612Z,1.10
2023-03-20T10:06:17.353Z,3.92
2023-03-20T10:08:46.308Z,6.18
2023-03-20T10:11:42.330Z,3.35
2023-03-20T10:14:23.138Z,2.75
2023-03-20T10:17:17.898Z,7.75
2023-03-20T10:20:31.994Z,6.55
2023-03-20T10:23:21.983Z,5.35
2023-03-20T10:25:57.481Z,1.60
2023-03-20T10:28:53.039Z,2.25
2023-03-20T10:31:46.116Z,6.68
2023-03-20T10:34:27.233Z,2.03
2023-03-20T10:37:04.233Z,1.98
2023-03-20T10:39:50.767Z,1.80
2023-03-20T10:42:25.101Z,1.90
2023-03-20T10:45:00.792Z,1.67
2023-03-20T10:47:31.012Z,1.70
2023-03-20T10:50:08.856Z,1.58
2023-03-20T10:52:38.795Z,3.22
2023-03-20T10:55:11.358Z,3.00
2023-03-20T10:57:42.428Z,2.20
2023-03-20T11:00:18.238Z,2.40
2023-03-20T11:02:46.913Z,2.17
2023-03-20T11:06:08.293Z,2.38
2023-03-20T11:08:44.891Z,3.20
2023-03-20T11:11:12.325Z,2.97
2023-03-20T11:13:42.593Z,3.15
2023-03-20T11:16:19.767Z,3.78
2023-03-20T11:18:49.774Z,3.05
2023-03-20T11:21:28.658Z,2.97
2023-03-20T11:23:56.553Z,3.00
2023-03-20T11:26:43.610Z,3.40
2023-03-20T11:29:45.941Z,3.25
2023-03-20T11:32:32.689Z,3.63
2023-03-20T11:35:20.931Z,3.40
2023-03-20T11:37:55.798Z,3.20
2023-03-20T11:40:25.714Z,3.60
2023-03-20T11:43:16.919Z,4.13
2023-03-20T11:45:48.808Z,3.67
2023-03-20T11:48:24.645Z,3.70
2023-03-20T11:51:20.924Z,3.92
2023-03-20T11:53:48.401Z,4.05
2023-03-20T11:56:27.980Z,3.30
2023-03-20T11:59:12.523Z,3.70
2023-03-20T12:01:49.398Z,6.82
2023-03-20T12:04:36.279Z,3.97
2023-03-20T12:07:13.128Z,3.92
2023-03-20T12:09:45.178Z,6.72
2023-03-20T12:12:44.257Z,10.05
2023-03-20T12:15:29.296Z,4.97
2023-03-20T12:17:57.366Z,4.00
2023-03-20T12:20:35.921Z,4.30
2023-03-20T12:23:09.849Z,3.90
2023-03-20T12:25:56.006Z,4.10
2023-03-20T12:28:35.955Z,4.07
2023-03-20T12:31:15.661Z,3.75
2023-03-20T12:34:02.426Z,3.92
2023-03-20T12:36:42.834Z,3.22
2023-03-20T12:39:28.152Z,3.30
2023-03-20T12:42:23.344Z,3.60
2023-03-20T12:45:15.242Z,2.75
2023-03-20T12:48:04.582Z,3.17
2023-03-20T12:50:43.069Z,3.00
2023-03-20T12:53:24.246Z,2.90
2023-03-20T12:56:15.845Z,3.20
2023-03-20T12:59:12.519Z,3.30
2023-03-20T13:01:46.453Z,3.13
2023-03-20T13:04:43.664Z,2.83
2023-03-20T13:07:27.151Z,2.83
2023-03-20T13:10:22.188Z,2.42
2023-03-20T13:13:16.073Z,2.78
2023-03-20T13:16:29.477Z,3.75
2023-03-20T13:19:17.407Z,3.22
2023-03-20T13:22:36.884Z,3.10
2023-03-20T13:25:37.967Z,2.50
2023-03-20T13:28:06.994Z,2.55
2023-03-20T13:30:47.692Z,3.20
2023-03-20T13:33:46.035Z,4.30
2023-03-20T13:36:52.780Z,3.63
2023-03-20T13:39:47.653Z,3.22
2023-03-20T13:42:18.393Z,3.38
2023-03-20T13:44:45.782Z,2.88
2023-03-20T13:47:20.935Z,3.03
2023-03-20T13:49:59.615Z,2.55
2023-03-20T13:52:31.771Z,2.80
2023-03-20T13:55:27.398Z,2.78
2023-03-20T13:58:13.498Z,2.60
2023-03-20T14:00:51.248Z,2.35
2023-03-20T14:03:39.756Z,2.58
2023-03-20T14:06:40.100Z,2.40
2023-03-20T14:09:25.599Z,2.10
2023-03-20T14:11:54.900Z,2.03
2023-03-20T14:14:38.331Z,2.90
2023-03-20T14:17:28.407Z,2.30
2023-03-20T14:19:59.090Z,2.30
2023-03-20T14:22:37.092Z,2.05
2023-03-20T14:25:10.093Z,2.55
2023-03-20T14:30:32.846Z,2.00
2023-03-20T14:33:07.731Z,1.70
2023-03-20T14:35:40.004Z,1.92
2023-03-20T14:38:16.630Z,1.95
2023-03-20T14:41:14.521Z,2.42
2023-03-20T14:44:04.228Z,2.10
2023-03-20T14:46:41.774Z,1.70
2023-03-20T14:49:38.902Z,1.92
2023-03-20T14:52:43.839Z,2.15
2023-03-20T14:55:18.593Z,2.13
2023-03-20T14:57:56.045Z,2.60
2023-03-20T15:00:29.078Z,2.15
2023-03-20T15:03:12.730Z,2.40
2023-03-20T15:05:40.245Z,2.15
2023-03-20T15:08:11.272Z,2.03
2023-03-20T15:10:48.259Z,2.00
2023-03-20T15:13:15.823Z,2.22
2023-03-20T15:15:54.682Z,1.70
2023-03-20T15:18:26.745Z,2.13
2023-03-20T15:20:57.387Z,2.10
2023-03-20T15:23:26.742Z,2.08
2023-03-20T15:25:54.346Z,2.40
2023-03-20T15:28:27.431Z,2.45
2023-03-20T15:30:58.986Z,2.30
2023-03-20T15:33:40.020Z,1.67
2023-03-20T15:36:11.567Z,2.20
2023-03-20T15:38:39.454Z,1.73
2023-03-20T15:41:18.669Z,1.80
2023-03-20T15:43:55.123Z,1.90
2023-03-20T15:46:32.101Z,2.00
2023-03-20T15:49:03.194Z,2.33
2023-03-20T15:51:33.020Z,1.50
2023-03-20T15:54:10.985Z,2.17
2023-03-20T15:56:48.578Z,2.13
2023-03-20T15:59:40.169Z,2.35
2023-03-20T16:02:14.385Z,2.20
2023-03-20T16:04:53.206Z,2.35
2023-03-20T16:07:48.151Z,2.15
2023-03-20T16:10:31.994Z,2.90
2023-03-20T16:13:10.200Z,2.28
2023-03-20T16:15:40.701Z,2.47
2023-03-20T16:18:12.590Z,2.22
2023-03-20T16:20:54.328Z,2.28
2023-03-20T16:23:44.826Z,2.28
2023-03-20T16:26:18.675Z,2.03
2023-03-20T16:28:59.253Z,2.50
2023-03-20T16:31:28.775Z,2.10
2023-03-20T16:34:10.902Z,2.60
2023-03-20T16:36:44.298Z,2.35
2023-03-20T16:39:32.230Z,2.60
2023-03-20T16:42:12.392Z,2.28
2023-03-20T16:44:42.069Z,2.00
2023-03-20T16:47:22.147Z,2.63
2023-03-20T16:49:55.616Z,2.47
2023-03-20T16:52:28.845Z,2.50
2023-03-20T16:55:00.459Z,2.20
2023-03-20T16:57:37.393Z,2.13
2023-03-20T17:00:21.423Z,2.63
2023-03-20T17:03:23.728Z,2.53
2023-03-20T17:06:01.705Z,4.18
2023-03-20T17:08:52.078Z,3.70
2023-03-20T17:11:35.799Z,3.63
2023-03-20T17:14:04.934Z,2.75
2023-03-20T17:16:39.254Z,2.30
2023-03-20T17:19:21.325Z,3.47
2023-03-20T17:21:51.349Z,3.13
2023-03-20T17:24:22.011Z,3.03
2023-03-20T17:27:16.879Z,2.53
2023-03-20T17:29:56.144Z,2.60
2023-03-20T17:32:30.154Z,2.67
2023-03-20T17:35:08.231Z,2.83
2023-03-20T17:37:46.074Z,3.25
2023-03-20T17:40:27.607Z,3.00
2023-03-20T17:43:00.921Z,3.60
2023-03-20T17:45:33.145Z,2.50
2023-03-20T17:48:03.550Z,3.03
2023-03-20T17:50:47.337Z,3.58
2023-03-20T17:53:25.759Z,3.10
2023-03-20T17:55:56.741Z,2.90
2023-03-20T17:58:28.532Z,2.75
2023-03-20T18:00:58.784Z,2.88
2023-03-20T18:03:28.992Z,2.78
2023-03-20T18:05:57.020Z,2.65
2023-03-20T18:08:24.531Z,3.13
2023-03-20T18:10:56.267Z,2.47
2023-03-20T18:13:30.434Z,2.90
2023-03-20T18:16:01.825Z,2.33
2023-03-20T18:18:34.914Z,2.60
2023-03-20T18:23:31.684Z,2.35
2023-03-20T18:26:13.782Z,2.58
2023-03-20T18:28:46.575Z,3.03
2023-03-20T18:31:19.347Z,2.60
2023-03-20T18:33:48.412Z,2.17
2023-03-20T18:36:23.159Z,2.60
2023-03-20T18:38:52.086Z,3.55
2023-03-20T18:41:33.901Z,2.78
2023-03-20T18:44:03.853Z,2.30
2023-03-20T18:46:33.670Z,2.60
2023-03-20T18:49:04.208Z,2.65
2023-03-20T18:51:44.859Z,2.85
2023-03-20T18:54:15.444Z,3.05
2023-03-20T18:56:46.956Z,3.10
2023-03-20T18:59:23.081Z,2.83
2023-03-20T19:01:52.303Z,3.15
2023-03-20T19:04:24.936Z,3.00
2023-03-20T19:06:55.111Z,3.50
2023-03-20T19:09:24.167Z,5.70
2023-03-20T19:11:53.928Z,4.43
2023-03-20T19:14:26.533Z,3.38
2023-03-20T19:16:56.970Z,4.57
2023-03-20T19:19:34.383Z,3.55
2023-03-20T19:22:13.068Z,3.75
2023-03-20T19:24:43.782Z,3.50
2023-03-20T19:27:19.078Z,3.10
2023-03-20T19:29:49.635Z,3.63
2023-03-20T19:32:28.141Z,2.95
2023-03-20T19:38:21.893Z,2.67
2023-03-20T19:40:55.913Z,2.60
2023-03-20T19:43:52.067Z,2.88
2023-03-20T19:46:40.201Z,2.80
2023-03-20T19:49:24.971Z,3.13
2023-03-20T19:52:01.012Z,3.63
2023-03-20T19:54:56.373Z,3.63
2023-03-20T19:57:37.292Z,3.33
2023-03-20T20:00:55.731Z,2.70
2023-03-20T20:03:08.407Z,2.65
2023-03-20T20:05:39.703Z,3.15
2023-03-20T20:11:18.938Z,3.58
2023-03-20T20:14:09.090Z,3.25
2023-03-20T20:16:57.916Z,2.80
2023-03-20T20:19:31.591Z,2.95
2023-03-20T20:22:26.009Z,2.83
2023-03-20T20:25:00.629Z,3.10
2023-03-20T20:27:34.066Z,3.33
2023-03-20T20:30:17.387Z,3.75
2023-03-20T20:33:03.462Z,2.97
2023-03-20T20:36:01.943Z,2.40
2023-03-20T20:38:50.686Z,2.50
2023-03-20T20:41:34.371Z,2.50
2023-03-20T20:44:15.984Z,2.33
2023-03-20T20:47:00.610Z,2.37
2023-03-20T20:49:30.404Z,2.35
2023-03-20T20:52:01.012Z,3.33
2023-03-20T20:54:31.562Z,2.75
2023-03-20T20:56:59.291Z,2.72
2023-03-20T20:59:31.734Z,2.72
2023-03-20T21:01:59.063Z,2.60
2023-03-20T21:04:30.618Z,2.60
2023-03-20T21:07:09.222Z,3.00
2023-03-20T21:09:37.610Z,2.65
2023-03-20T21:12:26.417Z,3.20
2023-03-20T21:14:59.790Z,2.83
2023-03-20T21:17:30.187Z,2.67
2023-03-20T21:19:57.815Z,2.40
2023-03-20T21:22:36.543Z,3.10
2023-03-20T21:25:15.201Z,3.30
2023-03-20T21:27:42.884Z,2.88
2023-03-20T21:30:28.588Z,3.03
2023-03-20T21:32:58.461Z,2.70
2023-03-20T21:35:27.037Z,2.75
2023-03-20T21:40:42.406Z,3.78
2023-03-20T21:43:10.509Z,2.80
2023-03-20T21:46:24.959Z,4.05
2023-03-20T21:49:27.858Z,3.78
2023-03-20T22:00:19.247Z,4.15
2023-03-20T22:02:30.184Z,4.60
2023-03-20T22:08:33.553Z,3.80
2023-03-20T22:14:17.521Z,3.60
2023-03-20T22:17:08.722Z,4.05
2023-03-20T22:20:07.102Z,4.30
2023-03-20T22:22:26.683Z,4.28
2023-03-20T22:25:18.476Z,4.30
2023-03-20T22:28:02.495Z,4.43
2023-03-20T22:31:03.300Z,3.78
2023-03-20T22:36:43.523Z,4.13
2023-03-20T22:47:08.933Z,3.85
2023-03-20T22:49:36.550Z,3.80
2023-03-20T22:52:22.588Z,4.47
2023-03-20T22:54:52.216Z,3.78
2023-03-20T22:57:19.869Z,3.88
2023-03-20T22:59:48.184Z,3.90
2023-03-20T23:02:18.557Z,4.13
2023-03-20T23:04:49.832Z,4.47
2023-03-20T23:07:17.591Z,4.72
2023-03-20T23:09:45.225Z,4.82
2023-03-20T23:12:12.746Z,4.07
2023-03-20T23:14:45.913Z,5.40
2023-03-20T23:17:14.008Z,4.90
2023-03-20T23:19:50.526Z,4.78
2023-03-20T23:22:21.556Z,4.93
2023-03-20T23:24:57.319Z,5.70
2023-03-20T23:27:36.405Z,4.80
2023-03-20T23:30:05.898Z,5.45
2023-03-20T23:32:38.447Z,4.25
2023-03-20T23:35:08.786Z,4.90
2023-03-20T23:37:39.268Z,4.40
2023-03-20T23:40:24.352Z,4.80
2023-03-20T23:42:51.807Z,4.32
2023-03-20T23:45:22.059Z,5.18
2023-03-20T23:47:52.798Z,5.10
2023-03-20T23:50:34.301Z,4.80
2023-03-20T23:53:19.583Z,4.25
2023-03-20T23:55:48.473Z,4.68
2023-03-20T23:58:27.444Z,4.68
